sensor_id;sensor_type;location;lat;lon;timestamp;pressure;altitude;pressure_sealevel;temperature;humidity
75247;BME280;63844;50.042;19.224;2023-05-14T00:00:20;99455.89;;;8.73;73.00
75247;BME280;63844;50.042;19.224;2023-05-14T00:03:07;99453.60;;;8.69;73.18
75247;BME280;63844;50.042;19.224;2023-05-14T00:05:33;99456.26;;;8.66;72.08
75247;BME280;63844;50.042;19.224;2023-05-14T00:08:00;99454.81;;;8.63;71.61
75247;BME280;63844;50.042;19.224;2023-05-14T00:10:26;99450.73;;;8.60;72.99
75247;BME280;63844;50.042;19.224;2023-05-14T00:12:53;99452.08;;;8.58;71.34
75247;BME280;63844;50.042;19.224;2023-05-14T00:15:19;99445.97;;;8.56;71.95
75247;BME280;63844;50.042;19.224;2023-05-14T00:17:46;99449.39;;;8.55;73.45
75247;BME280;63844;50.042;19.224;2023-05-14T00:20:12;99449.94;;;8.54;71.70
75247;BME280;63844;50.042;19.224;2023-05-14T00:22:39;99453.66;;;8.54;71.90
75247;BME280;63844;50.042;19.224;2023-05-14T00:25:06;99451.11;;;8.52;72.40
75247;BME280;63844;50.042;19.224;2023-05-14T00:27:34;99450.02;;;8.53;72.01
75247;BME280;63844;50.042;19.224;2023-05-14T00:30:02;99452.22;;;8.55;71.45
75247;BME280;63844;50.042;19.224;2023-05-14T00:32:29;99451.36;;;8.54;72.60
75247;BME280;63844;50.042;19.224;2023-05-14T00:34:56;99453.22;;;8.52;71.83
75247;BME280;63844;50.042;19.224;2023-05-14T00:37:23;99449.80;;;8.50;71.18
75247;BME280;63844;50.042;19.224;2023-05-14T00:39:49;99451.10;;;8.49;70.80
75247;BME280;63844;50.042;19.224;2023-05-14T00:42:16;99448.65;;;8.45;70.72
75247;BME280;63844;50.042;19.224;2023-05-14T00:44:42;99451.50;;;8.41;71.26
75247;BME280;63844;50.042;19.224;2023-05-14T00:47:09;99452.97;;;8.36;71.90
75247;BME280;63844;50.042;19.224;2023-05-14T00:49:36;99455.59;;;8.29;74.45
75247;BME280;63844;50.042;19.224;2023-05-14T00:52:05;99455.10;;;8.28;73.92
75247;BME280;63844;50.042;19.224;2023-05-14T00:54:32;99455.98;;;8.28;74.58
75247;BME280;63844;50.042;19.224;2023-05-14T00:56:59;99458.40;;;8.29;74.53
75247;BME280;63844;50.042;19.224;2023-05-14T00:59:26;99463.58;;;8.31;73.97
75247;BME280;63844;50.042;19.224;2023-05-14T01:01:53;99461.30;;;8.31;73.05
75247;BME280;63844;50.042;19.224;2023-05-14T01:04:19;99464.17;;;8.30;72.62
75247;BME280;63844;50.042;19.224;2023-05-14T01:07:12;99465.22;;;8.27;73.32
75247;BME280;63844;50.042;19.224;2023-05-14T01:09:54;99465.66;;;8.28;74.37
75247;BME280;63844;50.042;19.224;2023-05-14T01:15:27;99468.15;;;8.28;73.02
75247;BME280;63844;50.042;19.224;2023-05-14T01:18:07;99468.48;;;8.25;74.82
75247;BME280;63844;50.042;19.224;2023-05-14T01:20:34;99470.71;;;8.26;73.17
75247;BME280;63844;50.042;19.224;2023-05-14T01:23:01;99467.09;;;8.24;73.78
75247;BME280;63844;50.042;19.224;2023-05-14T01:25:29;99467.52;;;8.23;73.61
75247;BME280;63844;50.042;19.224;2023-05-14T01:28:22;99467.66;;;8.24;74.15
75247;BME280;63844;50.042;19.224;2023-05-14T01:31:28;99470.46;;;8.24;75.26
75247;BME280;63844;50.042;19.224;2023-05-14T01:33:51;99471.67;;;8.21;73.42
75247;BME280;63844;50.042;19.224;2023-05-14T01:36:18;99465.48;;;8.18;72.72
75247;BME280;63844;50.042;19.224;2023-05-14T01:38:45;99465.56;;;8.16;74.61
75247;BME280;63844;50.042;19.224;2023-05-14T01:41:13;99463.60;;;8.16;74.31
75247;BME280;63844;50.042;19.224;2023-05-14T01:43:40;99460.40;;;8.17;73.98
75247;BME280;63844;50.042;19.224;2023-05-14T01:46:06;99460.95;;;8.13;74.60
75247;BME280;63844;50.042;19.224;2023-05-14T01:48:33;99462.67;;;8.14;74.15
75247;BME280;63844;50.042;19.224;2023-05-14T01:50:59;99465.61;;;8.15;75.42
75247;BME280;63844;50.042;19.224;2023-05-14T01:53:26;99463.48;;;8.16;74.99
75247;BME280;63844;50.042;19.224;2023-05-14T01:55:52;99466.98;;;8.16;75.07
75247;BME280;63844;50.042;19.224;2023-05-14T01:58:19;99459.54;;;8.16;75.75
75247;BME280;63844;50.042;19.224;2023-05-14T02:00:45;99461.52;;;8.16;74.91
75247;BME280;63844;50.042;19.224;2023-05-14T02:03:11;99462.02;;;8.13;73.41
75247;BME280;63844;50.042;19.224;2023-05-14T02:05:38;99459.26;;;8.08;72.91
75247;BME280;63844;50.042;19.224;2023-05-14T02:08:04;99456.65;;;8.04;75.63
75247;BME280;63844;50.042;19.224;2023-05-14T02:10:31;99454.11;;;8.02;75.92
75247;BME280;63844;50.042;19.224;2023-05-14T02:12:57;99451.52;;;8.04;74.53
75247;BME280;63844;50.042;19.224;2023-05-14T02:15:23;99453.23;;;8.05;74.31
75247;BME280;63844;50.042;19.224;2023-05-14T02:17:50;99449.81;;;8.06;75.02
75247;BME280;63844;50.042;19.224;2023-05-14T02:20:16;99454.11;;;8.05;74.34
75247;BME280;63844;50.042;19.224;2023-05-14T02:22:43;99455.16;;;8.05;74.74
75247;BME280;63844;50.042;19.224;2023-05-14T02:25:11;99454.40;;;8.06;75.47
75247;BME280;63844;50.042;19.224;2023-05-14T02:27:37;99450.75;;;8.05;75.22
75247;BME280;63844;50.042;19.224;2023-05-14T02:30:04;99445.77;;;8.06;77.06
75247;BME280;63844;50.042;19.224;2023-05-14T02:32:31;99445.94;;;8.06;76.88
75247;BME280;63844;50.042;19.224;2023-05-14T02:34:57;99439.34;;;8.08;76.65
75247;BME280;63844;50.042;19.224;2023-05-14T02:37:24;99439.56;;;8.07;76.31
75247;BME280;63844;50.042;19.224;2023-05-14T02:39:50;99437.57;;;8.05;77.05
75247;BME280;63844;50.042;19.224;2023-05-14T02:42:17;99431.30;;;8.07;76.96
75247;BME280;63844;50.042;19.224;2023-05-14T02:44:43;99432.16;;;8.07;75.79
75247;BME280;63844;50.042;19.224;2023-05-14T02:47:10;99429.18;;;8.06;76.03
75247;BME280;63844;50.042;19.224;2023-05-14T02:49:36;99424.31;;;8.05;75.73
75247;BME280;63844;50.042;19.224;2023-05-14T02:52:03;99418.05;;;8.04;76.18
75247;BME280;63844;50.042;19.224;2023-05-14T02:54:30;99416.98;;;8.03;77.20
75247;BME280;63844;50.042;19.224;2023-05-14T02:56:56;99415.80;;;8.03;77.23
75247;BME280;63844;50.042;19.224;2023-05-14T02:59:23;99412.20;;;8.04;76.19
75247;BME280;63844;50.042;19.224;2023-05-14T03:01:50;99409.95;;;8.03;77.74
75247;BME280;63844;50.042;19.224;2023-05-14T03:04:16;99410.50;;;8.06;76.84
75247;BME280;63844;50.042;19.224;2023-05-14T03:06:43;99405.73;;;8.06;76.28
75247;BME280;63844;50.042;19.224;2023-05-14T03:09:09;99400.01;;;8.05;77.73
75247;BME280;63844;50.042;19.224;2023-05-14T03:11:36;99406.13;;;8.06;78.60
75247;BME280;63844;50.042;19.224;2023-05-14T03:14:02;99399.70;;;8.07;76.93
75247;BME280;63844;50.042;19.224;2023-05-14T03:16:28;99397.11;;;8.06;76.82
75247;BME280;63844;50.042;19.224;2023-05-14T03:18:55;99401.54;;;8.06;77.93
75247;BME280;63844;50.042;19.224;2023-05-14T03:21:21;99402.73;;;8.07;76.39
75247;BME280;63844;50.042;19.224;2023-05-14T03:23:48;99399.85;;;8.08;75.20
75247;BME280;63844;50.042;19.224;2023-05-14T03:26:14;99403.30;;;8.09;76.59
75247;BME280;63844;50.042;19.224;2023-05-14T03:28:41;99400.27;;;8.10;77.21
75247;BME280;63844;50.042;19.224;2023-05-14T03:31:07;99399.56;;;8.14;76.59
75247;BME280;63844;50.042;19.224;2023-05-14T03:33:34;99396.62;;;8.16;76.83
75247;BME280;63844;50.042;19.224;2023-05-14T03:36:01;99398.67;;;8.17;76.81
75247;BME280;63844;50.042;19.224;2023-05-14T03:38:27;99401.94;;;8.19;74.26
75247;BME280;63844;50.042;19.224;2023-05-14T03:40:54;99405.55;;;8.21;74.66
75247;BME280;63844;50.042;19.224;2023-05-14T03:43:20;99405.86;;;8.22;76.05
75247;BME280;63844;50.042;19.224;2023-05-14T03:45:47;99402.77;;;8.23;74.90
75247;BME280;63844;50.042;19.224;2023-05-14T03:48:18;99401.06;;;8.26;76.20
75247;BME280;63844;50.042;19.224;2023-05-14T03:50:45;99397.41;;;8.28;75.77
75247;BME280;63844;50.042;19.224;2023-05-14T03:53:11;99397.98;;;8.31;76.61
75247;BME280;63844;50.042;19.224;2023-05-14T03:55:38;99397.71;;;8.33;75.93
75247;BME280;63844;50.042;19.224;2023-05-14T03:58:04;99407.67;;;8.35;75.68
75247;BME280;63844;50.042;19.224;2023-05-14T04:00:40;99404.89;;;8.38;75.30
75247;BME280;63844;50.042;19.224;2023-05-14T04:03:07;99407.11;;;8.39;76.63
75247;BME280;63844;50.042;19.224;2023-05-14T04:05:34;99404.91;;;8.37;76.14
75247;BME280;63844;50.042;19.224;2023-05-14T04:08:01;99406.08;;;8.39;76.66
75247;BME280;63844;50.042;19.224;2023-05-14T04:10:27;99406.21;;;8.40;76.20
75247;BME280;63844;50.042;19.224;2023-05-14T04:12:54;99400.83;;;8.38;77.16
75247;BME280;63844;50.042;19.224;2023-05-14T04:15:20;99397.83;;;8.42;76.58
75247;BME280;63844;50.042;19.224;2023-05-14T04:17:47;99402.23;;;8.42;75.83
75247;BME280;63844;50.042;19.224;2023-05-14T04:20:13;99400.71;;;8.41;76.47
75247;BME280;63844;50.042;19.224;2023-05-14T04:22:40;99399.54;;;8.43;76.77
75247;BME280;63844;50.042;19.224;2023-05-14T04:25:06;99399.27;;;8.45;76.15
75247;BME280;63844;50.042;19.224;2023-05-14T04:27:33;99398.75;;;8.51;75.85
75247;BME280;63844;50.042;19.224;2023-05-14T04:29:59;99401.19;;;8.49;77.40
75247;BME280;63844;50.042;19.224;2023-05-14T04:32:26;99403.29;;;8.56;76.12
75247;BME280;63844;50.042;19.224;2023-05-14T04:34:52;99404.13;;;8.57;75.74
75247;BME280;63844;50.042;19.224;2023-05-14T04:37:19;99406.67;;;8.62;76.05
75247;BME280;63844;50.042;19.224;2023-05-14T04:39:45;99408.54;;;8.64;76.40
75247;BME280;63844;50.042;19.224;2023-05-14T04:42:12;99406.79;;;8.67;76.98
75247;BME280;63844;50.042;19.224;2023-05-14T04:44:38;99409.92;;;8.74;76.15
75247;BME280;63844;50.042;19.224;2023-05-14T04:47:05;99412.02;;;8.82;76.26
75247;BME280;63844;50.042;19.224;2023-05-14T04:49:32;99410.06;;;8.82;75.78
75247;BME280;63844;50.042;19.224;2023-05-14T04:51:59;99409.59;;;8.88;76.07
75247;BME280;63844;50.042;19.224;2023-05-14T04:54:26;99399.56;;;8.94;75.64
75247;BME280;63844;50.042;19.224;2023-05-14T04:56:52;99402.61;;;9.00;75.56
75247;BME280;63844;50.042;19.224;2023-05-14T04:59:21;99401.73;;;9.06;75.10
75247;BME280;63844;50.042;19.224;2023-05-14T05:01:47;99397.36;;;9.12;75.32
75247;BME280;63844;50.042;19.224;2023-05-14T05:04:14;99396.33;;;9.14;75.31
75247;BME280;63844;50.042;19.224;2023-05-14T05:06:40;99393.59;;;9.16;75.61
75247;BME280;63844;50.042;19.224;2023-05-14T05:09:06;99390.08;;;9.23;75.22
75247;BME280;63844;50.042;19.224;2023-05-14T05:11:34;99390.79;;;9.29;75.07
75247;BME280;63844;50.042;19.224;2023-05-14T05:14:01;99394.78;;;9.34;74.91
75247;BME280;63844;50.042;19.224;2023-05-14T05:16:27;99394.33;;;9.39;74.59
75247;BME280;63844;50.042;19.224;2023-05-14T05:18:54;99400.15;;;9.48;74.50
75247;BME280;63844;50.042;19.224;2023-05-14T05:21:20;99396.15;;;9.51;74.40
75247;BME280;63844;50.042;19.224;2023-05-14T05:23:47;99393.27;;;9.52;74.63
75247;BME280;63844;50.042;19.224;2023-05-14T05:26:13;99387.92;;;9.59;74.53
75247;BME280;63844;50.042;19.224;2023-05-14T05:28:39;99384.38;;;9.65;74.50
75247;BME280;63844;50.042;19.224;2023-05-14T05:31:06;99388.45;;;9.75;74.01
75247;BME280;63844;50.042;19.224;2023-05-14T05:33:33;99384.64;;;9.83;74.13
75247;BME280;63844;50.042;19.224;2023-05-14T05:36:00;99381.02;;;9.90;73.97
75247;BME280;63844;50.042;19.224;2023-05-14T05:38:27;99380.00;;;9.96;73.82
75247;BME280;63844;50.042;19.224;2023-05-14T05:40:53;99384.23;;;10.05;73.43
75247;BME280;63844;50.042;19.224;2023-05-14T05:43:20;99390.14;;;10.13;73.03
75247;BME280;63844;50.042;19.224;2023-05-14T05:45:46;99391.42;;;10.16;72.90
75247;BME280;63844;50.042;19.224;2023-05-14T05:48:12;99387.83;;;10.26;72.78
75247;BME280;63844;50.042;19.224;2023-05-14T05:50:39;99389.98;;;10.32;72.52
75247;BME280;63844;50.042;19.224;2023-05-14T05:53:05;99389.38;;;10.42;71.88
75247;BME280;63844;50.042;19.224;2023-05-14T05:55:32;99391.34;;;10.51;71.60
75247;BME280;63844;50.042;19.224;2023-05-14T05:57:58;99387.29;;;10.59;71.27
75247;BME280;63844;50.042;19.224;2023-05-14T06:00:25;99378.65;;;10.68;71.52
75247;BME280;63844;50.042;19.224;2023-05-14T06:02:51;99369.69;;;10.75;70.88
75247;BME280;63844;50.042;19.224;2023-05-14T06:05:18;99368.58;;;10.82;70.46
75247;BME280;63844;50.042;19.224;2023-05-14T06:07:44;99363.60;;;10.88;70.53
75247;BME280;63844;50.042;19.224;2023-05-14T06:10:11;99362.43;;;11.01;70.59
75247;BME280;63844;50.042;19.224;2023-05-14T06:12:37;99363.02;;;11.12;70.16
75247;BME280;63844;50.042;19.224;2023-05-14T06:15:04;99363.67;;;11.24;69.66
75247;BME280;63844;50.042;19.224;2023-05-14T06:17:31;99362.83;;;11.32;69.60
75247;BME280;63844;50.042;19.224;2023-05-14T06:19:57;99365.39;;;11.44;69.77
75247;BME280;63844;50.042;19.224;2023-05-14T06:22:23;99364.29;;;11.54;69.41
75247;BME280;63844;50.042;19.224;2023-05-14T06:24:50;99359.66;;;11.59;69.04
75247;BME280;63844;50.042;19.224;2023-05-14T06:27:16;99353.83;;;11.70;68.55
75247;BME280;63844;50.042;19.224;2023-05-14T06:29:43;99350.49;;;11.80;68.23
75247;BME280;63844;50.042;19.224;2023-05-14T06:32:09;99352.73;;;11.92;68.74
75247;BME280;63844;50.042;19.224;2023-05-14T06:34:37;99346.89;;;12.03;68.69
75247;BME280;63844;50.042;19.224;2023-05-14T06:37:03;99344.25;;;12.16;68.63
75247;BME280;63844;50.042;19.224;2023-05-14T06:39:30;99340.92;;;12.23;67.74
75247;BME280;63844;50.042;19.224;2023-05-14T06:41:57;99345.88;;;12.34;67.81
75247;BME280;63844;50.042;19.224;2023-05-14T06:44:23;99350.05;;;12.43;67.77
75247;BME280;63844;50.042;19.224;2023-05-14T06:46:50;99348.20;;;12.50;67.10
75247;BME280;63844;50.042;19.224;2023-05-14T06:49:17;99350.05;;;12.46;66.63
75247;BME280;63844;50.042;19.224;2023-05-14T06:51:44;99351.32;;;12.53;67.37
75247;BME280;63844;50.042;19.224;2023-05-14T06:54:11;99349.02;;;12.61;67.55
75247;BME280;63844;50.042;19.224;2023-05-14T06:56:38;99343.08;;;12.75;67.11
75247;BME280;63844;50.042;19.224;2023-05-14T06:59:04;99343.94;;;12.88;66.17
75247;BME280;63844;50.042;19.224;2023-05-14T07:01:31;99347.87;;;13.01;66.19
75247;BME280;63844;50.042;19.224;2023-05-14T07:03:57;99351.63;;;13.08;65.55
75247;BME280;63844;50.042;19.224;2023-05-14T07:06:24;99348.66;;;13.12;65.72
75247;BME280;63844;50.042;19.224;2023-05-14T07:08:50;99346.46;;;13.20;65.83
75247;BME280;63844;50.042;19.224;2023-05-14T07:11:17;99346.84;;;13.31;65.59
75247;BME280;63844;50.042;19.224;2023-05-14T07:13:44;99352.90;;;13.40;64.91
75247;BME280;63844;50.042;19.224;2023-05-14T07:16:10;99354.05;;;13.46;64.50
75247;BME280;63844;50.042;19.224;2023-05-14T07:18:37;99356.20;;;13.56;64.81
75247;BME280;63844;50.042;19.224;2023-05-14T07:21:03;99362.02;;;13.66;63.17
75247;BME280;63844;50.042;19.224;2023-05-14T07:23:32;99367.86;;;13.67;63.78
75247;BME280;63844;50.042;19.224;2023-05-14T07:26:02;99372.54;;;13.69;63.00
75247;BME280;63844;50.042;19.224;2023-05-14T07:28:28;99374.17;;;13.71;63.20
75247;BME280;63844;50.042;19.224;2023-05-14T07:30:55;99377.77;;;13.85;63.34
75247;BME280;63844;50.042;19.224;2023-05-14T07:33:21;99376.12;;;14.00;63.20
75247;BME280;63844;50.042;19.224;2023-05-14T07:35:48;99370.28;;;14.09;62.94
75247;BME280;63844;50.042;19.224;2023-05-14T07:38:14;99355.15;;;14.21;63.08
75247;BME280;63844;50.042;19.224;2023-05-14T07:40:41;99349.23;;;14.33;62.76
75247;BME280;63844;50.042;19.224;2023-05-14T07:43:09;99347.84;;;14.45;62.49
75247;BME280;63844;50.042;19.224;2023-05-14T07:45:36;99344.16;;;14.55;62.79
75247;BME280;63844;50.042;19.224;2023-05-14T07:48:04;99329.96;;;14.67;62.34
75247;BME280;63844;50.042;19.224;2023-05-14T07:50:30;99331.14;;;14.77;62.43
75247;BME280;63844;50.042;19.224;2023-05-14T07:52:57;99332.17;;;14.82;61.73
75247;BME280;63844;50.042;19.224;2023-05-14T07:55:23;99328.11;;;14.79;61.22
75247;BME280;63844;50.042;19.224;2023-05-14T07:57:49;99322.50;;;14.69;61.83
75247;BME280;63844;50.042;19.224;2023-05-14T08:00:16;99319.17;;;14.77;61.04
75247;BME280;63844;50.042;19.224;2023-05-14T08:02:43;99310.40;;;14.71;60.82
75247;BME280;63844;50.042;19.224;2023-05-14T08:05:09;99305.33;;;14.83;61.78
75247;BME280;63844;50.042;19.224;2023-05-14T08:07:36;99304.64;;;14.94;60.73
75247;BME280;63844;50.042;19.224;2023-05-14T08:10:03;99299.48;;;15.05;60.57
75247;BME280;63844;50.042;19.224;2023-05-14T08:12:29;99292.06;;;15.18;60.85
75247;BME280;63844;50.042;19.224;2023-05-14T08:14:55;99290.41;;;15.32;60.91
75247;BME280;63844;50.042;19.224;2023-05-14T08:17:22;99283.08;;;15.45;60.30
75247;BME280;63844;50.042;19.224;2023-05-14T08:19:48;99279.95;;;15.53;59.88
75247;BME280;63844;50.042;19.224;2023-05-14T08:22:15;99277.56;;;15.54;59.71
75247;BME280;63844;50.042;19.224;2023-05-14T08:24:41;99275.46;;;15.49;59.54
75247;BME280;63844;50.042;19.224;2023-05-14T08:27:08;99275.98;;;15.51;60.40
75247;BME280;63844;50.042;19.224;2023-05-14T08:29:35;99276.05;;;15.68;60.27
75247;BME280;63844;50.042;19.224;2023-05-14T08:32:01;99270.27;;;15.80;59.50
75247;BME280;63844;50.042;19.224;2023-05-14T08:34:28;99267.09;;;15.86;58.86
75247;BME280;63844;50.042;19.224;2023-05-14T08:36:55;99268.00;;;15.90;59.06
75247;BME280;63844;50.042;19.224;2023-05-14T08:39:21;99264.27;;;15.92;58.26
75247;BME280;63844;50.042;19.224;2023-05-14T08:41:48;99262.77;;;16.01;58.72
75247;BME280;63844;50.042;19.224;2023-05-14T08:44:18;99260.36;;;16.04;58.42
75247;BME280;63844;50.042;19.224;2023-05-14T08:46:45;99254.10;;;16.19;58.42
75247;BME280;63844;50.042;19.224;2023-05-14T08:49:23;99252.98;;;16.26;57.98
75247;BME280;63844;50.042;19.224;2023-05-14T08:51:52;99249.04;;;16.45;58.11
75247;BME280;63844;50.042;19.224;2023-05-14T08:54:19;99250.73;;;16.50;58.17
75247;BME280;63844;50.042;19.224;2023-05-14T08:56:50;99247.66;;;16.67;58.11
75247;BME280;63844;50.042;19.224;2023-05-14T08:59:16;99242.80;;;16.80;57.32
75247;BME280;63844;50.042;19.224;2023-05-14T09:01:45;99237.05;;;16.97;56.22
75247;BME280;63844;50.042;19.224;2023-05-14T09:04:19;99237.38;;;17.09;56.30
75247;BME280;63844;50.042;19.224;2023-05-14T09:06:51;99231.94;;;17.24;56.08
75247;BME280;63844;50.042;19.224;2023-05-14T09:09:19;99234.19;;;17.31;55.13
75247;BME280;63844;50.042;19.224;2023-05-14T09:11:50;99235.27;;;17.39;55.53
75247;BME280;63844;50.042;19.224;2023-05-14T09:14:17;99238.67;;;17.50;55.45
75247;BME280;63844;50.042;19.224;2023-05-14T09:16:46;99233.98;;;17.66;55.58
75247;BME280;63844;50.042;19.224;2023-05-14T09:19:13;99233.96;;;17.75;53.82
75247;BME280;63844;50.042;19.224;2023-05-14T09:21:41;99234.64;;;17.77;53.96
75247;BME280;63844;50.042;19.224;2023-05-14T09:24:18;99229.97;;;17.89;54.25
75247;BME280;63844;50.042;19.224;2023-05-14T09:26:49;99235.40;;;17.94;53.96
75247;BME280;63844;50.042;19.224;2023-05-14T09:29:16;99235.90;;;17.98;51.63
75247;BME280;63844;50.042;19.224;2023-05-14T09:31:42;99235.02;;;17.90;51.68
75247;BME280;63844;50.042;19.224;2023-05-14T09:34:09;99233.48;;;17.92;51.47
75247;BME280;63844;50.042;19.224;2023-05-14T09:36:35;99228.96;;;18.02;52.17
75247;BME280;63844;50.042;19.224;2023-05-14T09:39:03;99223.83;;;18.16;51.93
75247;BME280;63844;50.042;19.224;2023-05-14T09:41:29;99217.42;;;18.24;52.06
75247;BME280;63844;50.042;19.224;2023-05-14T09:43:56;99216.96;;;18.23;50.92
75247;BME280;63844;50.042;19.224;2023-05-14T09:46:23;99216.52;;;18.20;48.10
75247;BME280;63844;50.042;19.224;2023-05-14T09:48:54;99214.36;;;18.26;49.05
75247;BME280;63844;50.042;19.224;2023-05-14T09:51:21;99209.89;;;18.28;49.17
75247;BME280;63844;50.042;19.224;2023-05-14T09:53:50;99209.70;;;18.43;50.44
75247;BME280;63844;50.042;19.224;2023-05-14T09:56:17;99203.36;;;18.47;49.62
75247;BME280;63844;50.042;19.224;2023-05-14T09:58:44;99203.53;;;18.55;50.38
75247;BME280;63844;50.042;19.224;2023-05-14T10:01:10;99200.12;;;18.56;48.63
75247;BME280;63844;50.042;19.224;2023-05-14T10:03:38;99199.44;;;18.60;48.54
75247;BME280;63844;50.042;19.224;2023-05-14T10:06:05;99197.15;;;18.69;48.43
75247;BME280;63844;50.042;19.224;2023-05-14T10:08:33;99193.40;;;18.76;48.37
75247;BME280;63844;50.042;19.224;2023-05-14T10:11:04;99188.61;;;18.87;48.09
75247;BME280;63844;50.042;19.224;2023-05-14T10:13:36;99188.84;;;18.95;45.70
75247;BME280;63844;50.042;19.224;2023-05-14T10:16:15;99180.40;;;19.03;46.20
75247;BME280;63844;50.042;19.224;2023-05-14T10:18:45;99172.65;;;19.18;47.14
75247;BME280;63844;50.042;19.224;2023-05-14T10:21:15;99164.30;;;19.30;46.36
75247;BME280;63844;50.042;19.224;2023-05-14T10:23:42;99162.28;;;19.41;47.35
75247;BME280;63844;50.042;19.224;2023-05-14T10:26:09;99154.55;;;19.44;46.44
75247;BME280;63844;50.042;19.224;2023-05-14T10:28:36;99151.81;;;19.48;46.60
75247;BME280;63844;50.042;19.224;2023-05-14T10:31:02;99148.45;;;19.63;46.39
75247;BME280;63844;50.042;19.224;2023-05-14T10:33:29;99141.42;;;19.65;45.66
75247;BME280;63844;50.042;19.224;2023-05-14T10:36:00;99139.15;;;19.62;44.90
75247;BME280;63844;50.042;19.224;2023-05-14T10:38:29;99132.29;;;19.72;44.80
75247;BME280;63844;50.042;19.224;2023-05-14T10:40:58;99128.88;;;19.88;45.47
75247;BME280;63844;50.042;19.224;2023-05-14T10:43:26;99126.27;;;20.06;46.08
75247;BME280;63844;50.042;19.224;2023-05-14T10:45:57;99125.98;;;20.15;46.25
75247;BME280;63844;50.042;19.224;2023-05-14T10:48:25;99127.08;;;20.22;45.54
75247;BME280;63844;50.042;19.224;2023-05-14T10:50:52;99120.98;;;20.30;45.57
75247;BME280;63844;50.042;19.224;2023-05-14T10:53:19;99116.50;;;20.48;45.19
75247;BME280;63844;50.042;19.224;2023-05-14T10:55:46;99110.27;;;20.58;45.59
75247;BME280;63844;50.042;19.224;2023-05-14T10:58:13;99113.68;;;20.70;45.81
75247;BME280;63844;50.042;19.224;2023-05-14T11:00:40;99111.27;;;20.57;45.58
75247;BME280;63844;50.042;19.224;2023-05-14T11:03:08;99112.21;;;20.58;44.87
75247;BME280;63844;50.042;19.224;2023-05-14T11:05:35;99112.63;;;20.69;45.35
75247;BME280;63844;50.042;19.224;2023-05-14T11:08:07;99109.44;;;20.74;44.47
75247;BME280;63844;50.042;19.224;2023-05-14T11:10:34;99109.18;;;20.76;44.90
75247;BME280;63844;50.042;19.224;2023-05-14T11:13:01;99106.47;;;20.82;42.74
75247;BME280;63844;50.042;19.224;2023-05-14T11:15:27;99101.79;;;20.65;42.76
75247;BME280;63844;50.042;19.224;2023-05-14T11:17:54;99099.81;;;20.68;43.50
75247;BME280;63844;50.042;19.224;2023-05-14T11:20:20;99097.27;;;20.80;44.08
75247;BME280;63844;50.042;19.224;2023-05-14T11:22:48;99094.79;;;20.80;44.34
75247;BME280;63844;50.042;19.224;2023-05-14T11:25:16;99096.65;;;20.81;44.48
75247;BME280;63844;50.042;19.224;2023-05-14T11:27:44;99092.27;;;20.93;44.06
75247;BME280;63844;50.042;19.224;2023-05-14T11:30:16;99090.42;;;21.03;42.96
75247;BME280;63844;50.042;19.224;2023-05-14T11:32:44;99093.30;;;21.09;41.52
75247;BME280;63844;50.042;19.224;2023-05-14T11:35:12;99096.02;;;21.12;41.44
75247;BME280;63844;50.042;19.224;2023-05-14T11:37:38;99094.10;;;21.23;41.56
75247;BME280;63844;50.042;19.224;2023-05-14T11:40:15;99093.98;;;21.34;42.51
75247;BME280;63844;50.042;19.224;2023-05-14T11:42:42;99095.87;;;21.45;42.73
75247;BME280;63844;50.042;19.224;2023-05-14T11:45:12;99091.02;;;21.31;42.33
75247;BME280;63844;50.042;19.224;2023-05-14T11:47:40;99085.42;;;21.40;42.09
75247;BME280;63844;50.042;19.224;2023-05-14T11:50:07;99072.85;;;21.59;41.64
75247;BME280;63844;50.042;19.224;2023-05-14T11:52:40;99066.02;;;21.61;41.64
75247;BME280;63844;50.042;19.224;2023-05-14T11:55:11;99057.89;;;21.67;40.72
75247;BME280;63844;50.042;19.224;2023-05-14T11:57:38;99052.41;;;21.78;41.83
75247;BME280;63844;50.042;19.224;2023-05-14T12:00:09;99050.39;;;21.78;41.47
75247;BME280;63844;50.042;19.224;2023-05-14T12:02:39;99047.95;;;21.58;41.65
75247;BME280;63844;50.042;19.224;2023-05-14T12:05:06;99044.87;;;21.65;41.90
75247;BME280;63844;50.042;19.224;2023-05-14T12:07:34;99040.44;;;21.62;40.82
75247;BME280;63844;50.042;19.224;2023-05-14T12:10:02;99035.84;;;21.75;40.98
75247;BME280;63844;50.042;19.224;2023-05-14T12:12:34;99029.20;;;21.90;41.10
75247;BME280;63844;50.042;19.224;2023-05-14T12:15:01;99021.42;;;21.90;40.30
75247;BME280;63844;50.042;19.224;2023-05-14T12:17:36;99023.50;;;22.10;40.73
75247;BME280;63844;50.042;19.224;2023-05-14T12:20:03;99015.74;;;22.18;40.71
75247;BME280;63844;50.042;19.224;2023-05-14T12:22:30;99009.48;;;22.39;40.37
75247;BME280;63844;50.042;19.224;2023-05-14T12:24:57;99004.69;;;22.55;39.12
75247;BME280;63844;50.042;19.224;2023-05-14T12:27:26;99001.70;;;22.75;39.02
75247;BME280;63844;50.042;19.224;2023-05-14T12:30:03;98996.27;;;22.83;39.08
75247;BME280;63844;50.042;19.224;2023-05-14T12:32:30;98986.99;;;23.05;39.61
75247;BME280;63844;50.042;19.224;2023-05-14T12:34:58;98986.76;;;23.07;39.45
75247;BME280;63844;50.042;19.224;2023-05-14T12:37:24;98984.77;;;23.07;39.65
75247;BME280;63844;50.042;19.224;2023-05-14T12:39:51;98980.66;;;22.96;39.56
75247;BME280;63844;50.042;19.224;2023-05-14T12:42:18;98984.83;;;22.89;39.53
75247;BME280;63844;50.042;19.224;2023-05-14T12:44:44;98982.13;;;22.92;40.13
75247;BME280;63844;50.042;19.224;2023-05-14T12:47:10;98978.27;;;22.84;39.97
75247;BME280;63844;50.042;19.224;2023-05-14T12:49:37;98972.83;;;22.72;39.59
75247;BME280;63844;50.042;19.224;2023-05-14T12:52:04;98963.17;;;22.63;39.42
75247;BME280;63844;50.042;19.224;2023-05-14T12:54:30;98958.99;;;22.71;40.06
75247;BME280;63844;50.042;19.224;2023-05-14T12:56:57;98957.63;;;22.58;40.48
75247;BME280;63844;50.042;19.224;2023-05-14T12:59:24;98948.96;;;22.67;40.72